createdAt,value
2024-01-25T00:01:56.223Z,7.95
2024-01-25T00:04:23.757Z,7.92
2024-01-25T00:06:50.667Z,7.90
2024-01-25T00:09:18.198Z,7.95
2024-01-25T00:11:45.596Z,7.91
2024-01-25T00:14:12.292Z,7.84
2024-01-25T00:16:43.109Z,7.91
2024-01-25T00:19:09.819Z,7.80
2024-01-25T00:21:37.569Z,7.92
2024-01-25T00:24:05.170Z,7.94
2024-01-25T00:26:31.701Z,7.99
2024-01-25T00:28:58.295Z,7.82
2024-01-25T00:31:25.244Z,7.93
2024-01-25T00:33:51.971Z,7.93
2024-01-25T00:36:19.665Z,7.95
2024-01-25T00:38:46.742Z,7.94
2024-01-25T00:41:18.311Z,7.95
2024-01-25T00:43:45.140Z,7.95
2024-01-25T00:46:12.000Z,7.97
2024-01-25T00:48:39.158Z,7.95
2024-01-25T00:51:08.845Z,7.94
2024-01-25T00:53:35.918Z,7.93
2024-01-25T00:56:02.762Z,7.86
2024-01-25T00:58:29.759Z,7.80
2024-01-25T01:00:56.750Z,7.87
2024-01-25T01:03:23.647Z,7.77
2024-01-25T01:05:50.658Z,7.78
2024-01-25T01:08:17.808Z,7.89
2024-01-25T01:10:45.119Z,7.91
2024-01-25T01:13:11.669Z,7.92
2024-01-25T01:15:38.163Z,7.94
2024-01-25T01:18:09.369Z,7.92
2024-01-25T01:20:36.066Z,7.90
2024-01-25T01:23:02.837Z,7.79
2024-01-25T01:25:29.460Z,7.90
2024-01-25T01:27:56.014Z,7.89
2024-01-25T01:30:23.017Z,7.89
2024-01-25T01:32:51.745Z,7.85
2024-01-25T01:35:18.474Z,7.85
2024-01-25T01:37:45.294Z,7.85
2024-01-25T01:40:12.185Z,7.83
2024-01-25T01:42:38.877Z,7.83
2024-01-25T01:45:05.913Z,7.80
2024-01-25T01:47:32.577Z,7.80
2024-01-25T01:49:59.667Z,7.79
2024-01-25T01:52:26.739Z,7.80
2024-01-25T01:54:53.520Z,7.62
2024-01-25T01:57:20.295Z,7.79
2024-01-25T01:59:47.099Z,7.80
2024-01-25T02:02:13.761Z,7.78
2024-01-25T02:04:40.530Z,7.61
2024-01-25T02:07:08.592Z,7.77
2024-01-25T02:09:36.149Z,7.78
2024-01-25T02:12:03.543Z,7.74
2024-01-25T02:14:31.350Z,7.70
2024-01-25T02:16:57.963Z,7.75
2024-01-25T02:19:24.661Z,7.60
2024-01-25T02:21:55.152Z,7.61
2024-01-25T02:24:21.804Z,7.70
2024-01-25T02:26:48.608Z,7.72
2024-01-25T02:29:15.349Z,7.60
2024-01-25T02:31:44.313Z,7.72
2024-01-25T02:34:10.952Z,7.46
2024-01-25T02:36:37.672Z,7.70
2024-01-25T02:39:05.739Z,7.71
2024-01-25T02:41:33.340Z,7.63
2024-01-25T02:44:01.510Z,7.68
2024-01-25T02:46:28.077Z,7.66
2024-01-25T02:48:54.790Z,7.68
2024-01-25T02:51:21.436Z,7.65
2024-01-25T02:53:47.955Z,7.65
2024-01-25T02:56:14.866Z,7.65
2024-01-25T02:58:41.471Z,7.60
2024-01-25T03:01:08.132Z,7.58
2024-01-25T03:03:34.823Z,7.56
2024-01-25T03:06:01.660Z,7.53
2024-01-25T03:08:28.403Z,7.55
2024-01-25T03:10:54.930Z,7.56
2024-01-25T03:13:21.546Z,7.47
2024-01-25T03:15:48.206Z,7.40
2024-01-25T03:18:14.856Z,7.34
2024-01-25T03:20:41.443Z,7.48
2024-01-25T03:23:08.100Z,7.48
2024-01-25T03:25:34.611Z,7.46
2024-01-25T03:28:01.284Z,7.46
2024-01-25T03:30:27.832Z,7.47
2024-01-25T03:32:54.431Z,7.44
2024-01-25T03:35:20.973Z,7.46
2024-01-25T03:37:47.577Z,7.48
2024-01-25T03:40:14.224Z,7.46
2024-01-25T03:42:41.083Z,7.46
2024-01-25T03:45:08.510Z,7.44
2024-01-25T03:47:35.095Z,7.35
2024-01-25T03:50:01.826Z,7.44
2024-01-25T03:52:31.375Z,7.40
2024-01-25T03:54:58.105Z,7.44
2024-01-25T03:57:24.883Z,7.41
2024-01-25T03:59:51.373Z,7.42
2024-01-25T04:02:18.311Z,7.40
2024-01-25T04:04:45.258Z,7.40
2024-01-25T04:07:11.880Z,7.39
2024-01-25T04:09:38.496Z,7.25
2024-01-25T04:12:05.489Z,7.36
2024-01-25T04:14:31.992Z,7.35
2024-01-25T04:16:58.440Z,7.35
2024-01-25T04:19:25.590Z,7.34
2024-01-25T04:21:52.308Z,7.28
2024-01-25T04:24:19.240Z,7.23
2024-01-25T04:26:45.712Z,7.09
2024-01-25T04:29:12.208Z,7.18
2024-01-25T04:31:45.244Z,7.03
2024-01-25T04:34:14.112Z,7.12
2024-01-25T04:36:40.710Z,7.14
2024-01-25T04:39:07.504Z,7.11
2024-01-25T04:41:34.111Z,6.98
2024-01-25T04:44:00.735Z,7.12
2024-01-25T04:46:27.840Z,7.10
2024-01-25T04:48:54.458Z,7.13
2024-01-25T04:51:21.380Z,7.15
2024-01-25T04:53:48.236Z,7.16
2024-01-25T04:56:15.165Z,7.20
2024-01-25T04:58:41.806Z,7.22
2024-01-25T05:01:08.578Z,7.22
2024-01-25T05:03:35.637Z,7.20
2024-01-25T05:06:02.341Z,7.22
2024-01-25T05:08:29.003Z,7.20
2024-01-25T05:10:55.614Z,7.20
2024-01-25T05:13:22.182Z,7.19
2024-01-25T05:15:48.985Z,7.19
2024-01-25T05:18:15.620Z,7.02
2024-01-25T05:20:42.230Z,7.15
2024-01-25T05:23:11.044Z,7.14
2024-01-25T05:25:37.602Z,7.15
2024-01-25T05:28:04.615Z,7.15
2024-01-25T05:30:31.892Z,7.17
2024-01-25T05:32:58.443Z,7.20
2024-01-25T05:35:25.461Z,7.17
2024-01-25T05:37:54.193Z,7.05
2024-01-25T05:40:21.282Z,7.17
2024-01-25T05:42:47.977Z,7.14
2024-01-25T05:45:14.574Z,7.17
2024-01-25T05:47:41.390Z,7.05
2024-01-25T05:50:08.530Z,7.17
2024-01-25T05:52:40.281Z,7.14
2024-01-25T05:55:07.549Z,7.20
2024-01-25T05:57:36.668Z,7.13
2024-01-25T06:00:04.538Z,7.11
2024-01-25T06:02:31.146Z,7.20
2024-01-25T06:04:59.658Z,7.22
2024-01-25T06:07:27.780Z,7.24
2024-01-25T06:09:54.673Z,7.23
2024-01-25T06:12:21.466Z,7.21
2024-01-25T06:14:48.277Z,7.22
2024-01-25T06:17:14.846Z,7.21
2024-01-25T06:19:41.555Z,7.20
2024-01-25T06:22:08.243Z,7.06
2024-01-25T06:24:34.876Z,7.18
2024-01-25T06:27:01.461Z,7.08
2024-01-25T06:29:27.990Z,7.08
2024-01-25T06:31:54.597Z,7.22
2024-01-25T06:34:21.519Z,7.20
2024-01-25T06:36:48.176Z,7.18
2024-01-25T06:39:14.739Z,7.10
2024-01-25T06:41:41.370Z,7.16
2024-01-25T06:44:07.985Z,7.15
2024-01-25T06:46:34.558Z,7.17
2024-01-25T06:49:01.492Z,7.11
2024-01-25T06:51:29.150Z,7.10
2024-01-25T06:53:55.611Z,7.08
2024-01-25T06:56:22.146Z,7.07
2024-01-25T06:58:48.628Z,7.07
2024-01-25T07:01:22.216Z,7.03
2024-01-25T07:03:54.005Z,7.03
2024-01-25T07:06:21.179Z,7.03
2024-01-25T07:08:47.727Z,7.01
2024-01-25T07:11:14.473Z,6.95
2024-01-25T07:13:44.741Z,6.96
2024-01-25T07:16:11.668Z,6.92
2024-01-25T07:18:38.590Z,6.93
2024-01-25T07:21:06.228Z,6.91
2024-01-25T07:23:34.653Z,6.88
2024-01-25T07:26:01.381Z,6.94
2024-01-25T07:28:28.237Z,6.92
2024-01-25T07:30:54.926Z,6.92
2024-01-25T07:33:21.641Z,6.94
2024-01-25T07:35:49.285Z,6.98
2024-01-25T07:38:16.746Z,6.96
2024-01-25T07:40:43.887Z,6.89
2024-01-25T07:43:10.482Z,7.08
2024-01-25T07:45:37.368Z,7.12
2024-01-25T07:48:12.081Z,7.11
2024-01-25T07:50:42.048Z,7.15
2024-01-25T07:53:08.848Z,7.17
2024-01-25T07:55:35.466Z,7.06
2024-01-25T07:58:02.109Z,7.23
2024-01-25T08:00:28.779Z,7.23
2024-01-25T08:02:55.386Z,7.25
2024-01-25T08:05:21.987Z,7.24
2024-01-25T08:07:49.903Z,7.36
2024-01-25T08:10:17.608Z,7.40
2024-01-25T08:12:48.349Z,7.36
2024-01-25T08:15:19.099Z,7.30
2024-01-25T08:17:45.772Z,7.38
2024-01-25T08:20:14.699Z,7.37
2024-01-25T08:22:44.472Z,7.38
2024-01-25T08:25:12.650Z,7.29
2024-01-25T08:27:39.363Z,7.54
2024-01-25T08:30:06.851Z,7.64
2024-01-25T08:32:33.698Z,7.75
2024-01-25T08:35:01.123Z,7.67
2024-01-25T08:37:27.872Z,7.60
2024-01-25T08:39:54.682Z,7.65
2024-01-25T08:42:21.961Z,7.54
2024-01-25T08:44:51.381Z,7.67
2024-01-25T08:47:19.421Z,7.81
2024-01-25T08:49:46.087Z,7.75
2024-01-25T08:52:12.710Z,7.59
2024-01-25T08:54:39.686Z,7.54
2024-01-25T08:57:06.635Z,7.68
2024-01-25T08:59:36.345Z,7.74
2024-01-25T09:02:03.488Z,7.71
2024-01-25T09:04:30.354Z,7.63
2024-01-25T09:06:57.117Z,7.66
2024-01-25T09:09:24.390Z,7.64
2024-01-25T09:11:51.230Z,7.83
2024-01-25T09:14:17.786Z,7.69
2024-01-25T09:16:44.390Z,7.76
2024-01-25T09:19:13.215Z,7.64
2024-01-25T09:21:41.027Z,7.84
2024-01-25T09:24:08.517Z,7.89
2024-01-25T09:26:34.978Z,7.93
2024-01-25T09:29:01.569Z,7.81
2024-01-25T09:31:28.179Z,7.72
2024-01-25T09:33:55.082Z,8.05
2024-01-25T09:36:22.052Z,8.09
2024-01-25T09:38:48.696Z,7.97
2024-01-25T09:41:15.373Z,7.98
2024-01-25T09:43:41.934Z,8.15
2024-01-25T09:46:13.910Z,8.14
2024-01-25T09:48:41.649Z,8.09
2024-01-25T09:51:08.928Z,7.92
2024-01-25T09:53:36.625Z,8.06
2024-01-25T09:56:08.535Z,8.30
2024-01-25T09:58:47.979Z,8.30
2024-01-25T10:01:16.783Z,8.50
2024-01-25T10:03:45.133Z,8.52
2024-01-25T10:06:12.473Z,8.44
2024-01-25T10:08:39.228Z,8.44
2024-01-25T10:11:06.681Z,8.98
2024-01-25T10:13:33.384Z,8.37
2024-01-25T10:16:00.461Z,8.57
2024-01-25T10:18:30.003Z,8.39
2024-01-25T10:20:58.208Z,8.47
2024-01-25T10:23:26.861Z,8.94
2024-01-25T10:25:53.978Z,8.73
2024-01-25T10:28:20.684Z,8.65
2024-01-25T10:30:48.388Z,8.83
2024-01-25T10:33:16.641Z,8.82
2024-01-25T10:35:46.605Z,8.38
2024-01-25T10:38:14.457Z,8.59
2024-01-25T10:40:45.524Z,8.61
2024-01-25T10:43:15.577Z,9.06
2024-01-25T10:45:42.944Z,8.73
2024-01-25T10:48:09.794Z,8.68
2024-01-25T10:50:36.734Z,8.65
2024-01-25T10:53:04.338Z,9.67
2024-01-25T10:55:31.363Z,9.44
2024-01-25T10:57:58.188Z,9.35
2024-01-25T11:00:24.867Z,9.15
2024-01-25T11:02:53.053Z,8.91
2024-01-25T11:05:23.034Z,9.21
2024-01-25T11:07:51.797Z,9.13
2024-01-25T11:10:21.399Z,9.27
2024-01-25T11:12:58.325Z,9.20
2024-01-25T11:15:33.509Z,9.12
2024-01-25T11:18:02.221Z,9.25
2024-01-25T11:20:31.125Z,9.21
2024-01-25T11:23:03.973Z,9.09
2024-01-25T11:25:31.959Z,8.94
2024-01-25T11:27:59.532Z,9.06
2024-01-25T11:30:35.892Z,8.78
2024-01-25T11:33:06.917Z,8.70
2024-01-25T11:35:33.922Z,8.68
2024-01-25T11:38:01.395Z,8.88
2024-01-25T11:40:29.753Z,8.85
2024-01-25T11:42:56.713Z,9.56
2024-01-25T11:45:26.016Z,9.76
2024-01-25T11:47:52.951Z,9.77
2024-01-25T11:50:19.663Z,9.19
2024-01-25T11:52:46.441Z,10.62
2024-01-25T11:55:13.116Z,11.20
2024-01-25T11:57:44.573Z,11.16
2024-01-25T12:00:15.706Z,9.90
2024-01-25T12:02:43.143Z,9.86
2024-01-25T12:05:11.739Z,10.30
2024-01-25T12:07:40.670Z,11.07
2024-01-25T12:10:10.001Z,10.38
2024-01-25T12:12:38.115Z,11.22
2024-01-25T12:15:08.787Z,10.47
2024-01-25T12:17:37.724Z,10.43
2024-01-25T12:20:04.938Z,10.42
2024-01-25T12:22:33.870Z,11.06
2024-01-25T12:25:03.088Z,10.75
2024-01-25T12:27:31.882Z,11.12
2024-01-25T12:29:58.566Z,10.80
2024-01-25T12:32:25.088Z,10.92
2024-01-25T12:34:59.437Z,10.58
2024-01-25T12:37:26.063Z,11.05
2024-01-25T12:39:53.896Z,10.78
2024-01-25T12:42:21.437Z,10.27
2024-01-25T12:44:48.446Z,11.12
2024-01-25T12:47:15.592Z,10.70
2024-01-25T12:49:46.149Z,10.53
2024-01-25T12:52:14.760Z,10.79
2024-01-25T12:54:41.777Z,10.71
2024-01-25T12:57:08.998Z,10.72
2024-01-25T12:59:36.855Z,10.93
2024-01-25T13:02:03.709Z,10.65
2024-01-25T13:04:30.420Z,10.18
2024-01-25T13:06:57.719Z,10.51
2024-01-25T13:09:25.581Z,10.53
2024-01-25T13:11:55.091Z,10.94
2024-01-25T13:14:21.668Z,10.45
2024-01-25T13:16:48.318Z,10.00
2024-01-25T13:19:14.913Z,9.80
2024-01-25T13:21:42.320Z,9.68
2024-01-25T13:24:09.035Z,9.51
2024-01-25T13:26:37.261Z,9.73
2024-01-25T13:29:04.007Z,9.46
2024-01-25T13:31:30.589Z,9.29
2024-01-25T13:33:57.297Z,9.28
2024-01-25T13:36:23.954Z,9.33
2024-01-25T13:38:50.685Z,9.30
2024-01-25T13:41:17.228Z,9.11
2024-01-25T13:43:43.801Z,8.99
2024-01-25T13:46:10.591Z,9.15
2024-01-25T13:48:37.333Z,8.87
2024-01-25T13:51:04.113Z,8.94
2024-01-25T13:53:30.646Z,9.15
2024-01-25T13:55:57.206Z,9.35
2024-01-25T13:58:23.778Z,9.29
2024-01-25T14:00:50.374Z,8.64
2024-01-25T14:03:18.124Z,9.01
2024-01-25T14:05:44.868Z,8.88
2024-01-25T14:08:12.033Z,8.91
2024-01-25T14:10:38.912Z,9.02
2024-01-25T14:13:05.767Z,8.87
2024-01-25T14:15:32.763Z,8.78
2024-01-25T14:17:59.568Z,8.70
2024-01-25T14:20:26.326Z,8.65
2024-01-25T14:22:53.178Z,8.61
2024-01-25T14:25:21.989Z,8.38
2024-01-25T14:27:50.102Z,8.51
2024-01-25T14:30:17.425Z,8.49
2024-01-25T14:32:44.187Z,8.70
2024-01-25T14:35:10.924Z,8.50
2024-01-25T14:37:37.750Z,8.45
2024-01-25T14:40:18.830Z,8.48
2024-01-25T14:42:51.831Z,8.25
2024-01-25T14:45:18.639Z,8.37
2024-01-25T14:47:45.260Z,8.34
2024-01-25T14:50:11.907Z,8.21
2024-01-25T14:52:38.647Z,8.20
2024-01-25T14:55:06.092Z,8.24
2024-01-25T14:57:32.869Z,8.33
2024-01-25T14:59:59.970Z,8.04
2024-01-25T15:02:26.578Z,8.18
2024-01-25T15:04:53.368Z,8.21
2024-01-25T15:07:22.877Z,7.96
2024-01-25T15:09:49.926Z,7.99
2024-01-25T15:12:16.983Z,8.02
2024-01-25T15:14:43.589Z,8.09
2024-01-25T15:17:10.232Z,8.12
2024-01-25T15:19:38.510Z,7.91
2024-01-25T15:22:06.002Z,7.87
2024-01-25T15:24:33.569Z,7.90
2024-01-25T15:27:01.593Z,7.72
2024-01-25T15:29:28.604Z,7.90
2024-01-25T15:31:55.188Z,7.82
2024-01-25T15:34:21.931Z,7.71
2024-01-25T15:36:48.624Z,7.74
2024-01-25T15:39:15.681Z,7.77
2024-01-25T15:41:43.420Z,7.84
2024-01-25T15:44:10.013Z,7.64
2024-01-25T15:46:36.488Z,7.67
2024-01-25T15:49:03.478Z,7.79
2024-01-25T15:51:30.195Z,7.68
2024-01-25T15:53:56.927Z,7.65
2024-01-25T15:56:24.112Z,7.60
2024-01-25T15:58:50.722Z,7.38
2024-01-25T16:01:17.827Z,7.57
2024-01-25T16:03:44.851Z,7.52
2024-01-25T16:06:11.850Z,7.42
2024-01-25T16:08:38.935Z,7.57
2024-01-25T16:11:07.531Z,7.34
2024-01-25T16:13:34.261Z,7.48
2024-01-25T16:16:01.202Z,7.53
2024-01-25T16:18:28.052Z,7.51
2024-01-25T16:20:55.508Z,7.47
2024-01-25T16:23:22.061Z,7.45
2024-01-25T16:25:48.687Z,7.47
2024-01-25T16:28:15.439Z,7.42
2024-01-25T16:30:43.109Z,7.42
2024-01-25T16:33:09.677Z,7.30
2024-01-25T16:35:36.332Z,7.30
2024-01-25T16:38:03.183Z,7.23
2024-01-25T16:40:29.752Z,7.23
2024-01-25T16:42:56.385Z,7.23
2024-01-25T16:45:23.166Z,7.25
2024-01-25T16:47:49.744Z,7.26
2024-01-25T16:50:16.508Z,7.30
2024-01-25T16:52:43.264Z,7.23
2024-01-25T16:55:10.025Z,7.23
2024-01-25T16:57:36.635Z,7.16
2024-01-25T17:00:03.510Z,7.19
2024-01-25T17:02:30.009Z,7.22
2024-01-25T17:04:57.017Z,7.18
2024-01-25T17:07:23.744Z,7.13
2024-01-25T17:09:50.591Z,7.13
2024-01-25T17:12:18.506Z,7.09
2024-01-25T17:14:45.141Z,7.11
2024-01-25T17:17:14.429Z,7.08
2024-01-25T17:19:41.421Z,7.07
2024-01-25T17:22:08.026Z,7.00
2024-01-25T17:24:34.872Z,7.00
2024-01-25T17:27:01.361Z,7.04
2024-01-25T17:29:27.858Z,7.04
2024-01-25T17:31:54.594Z,7.01
2024-01-25T17:34:21.299Z,6.91
2024-01-25T17:36:50.128Z,6.93
2024-01-25T17:39:16.728Z,6.95
2024-01-25T17:41:43.270Z,7.04
2024-01-25T17:44:09.849Z,6.93
2024-01-25T17:46:36.401Z,6.85
2024-01-25T17:49:03.053Z,6.86
2024-01-25T17:51:29.630Z,6.79
2024-01-25T17:53:56.168Z,6.76
2024-01-25T17:56:22.696Z,6.61
2024-01-25T17:58:49.220Z,6.79
2024-01-25T18:01:15.823Z,6.77
2024-01-25T18:03:42.469Z,6.75
2024-01-25T18:06:09.718Z,6.70
2024-01-25T18:08:36.423Z,6.68
2024-01-25T18:11:03.248Z,6.67
2024-01-25T18:13:29.781Z,6.63
2024-01-25T18:15:56.580Z,6.59
2024-01-25T18:18:23.180Z,6.62
2024-01-25T18:20:49.669Z,6.58
2024-01-25T18:23:16.166Z,6.57
2024-01-25T18:25:42.877Z,6.65
2024-01-25T18:28:09.674Z,6.49
2024-01-25T18:30:36.427Z,6.50
2024-01-25T18:33:03.194Z,6.30
2024-01-25T18:35:29.875Z,6.44
2024-01-25T18:37:56.473Z,6.45
2024-01-25T18:40:22.951Z,6.39
2024-01-25T18:42:52.282Z,6.33
2024-01-25T18:45:19.779Z,6.33
2024-01-25T18:47:46.493Z,6.33
2024-01-25T18:50:13.279Z,6.30
2024-01-25T18:52:39.862Z,6.28
2024-01-25T18:55:07.205Z,6.29
2024-01-25T18:57:35.486Z,6.30
2024-01-25T19:00:02.643Z,6.26
2024-01-25T19:02:29.544Z,6.20
2024-01-25T19:04:56.543Z,6.14
2024-01-25T19:07:23.806Z,6.15
2024-01-25T19:09:50.786Z,6.13
2024-01-25T19:12:17.601Z,6.08
2024-01-25T19:14:44.205Z,5.86
2024-01-25T19:17:10.748Z,5.77
2024-01-25T19:19:39.170Z,5.73
2024-01-25T19:22:06.221Z,5.83
2024-01-25T19:24:32.955Z,5.75
2024-01-25T19:26:59.523Z,5.80
2024-01-25T19:29:26.203Z,5.75
2024-01-25T19:31:52.715Z,5.80
2024-01-25T19:34:21.795Z,5.73
2024-01-25T19:36:49.339Z,5.70
2024-01-25T19:39:19.293Z,5.76
2024-01-25T19:41:47.227Z,5.72
2024-01-25T19:44:16.718Z,5.67
2024-01-25T19:46:43.731Z,5.65
2024-01-25T19:49:10.353Z,5.62
2024-01-25T19:51:37.261Z,5.59
2024-01-25T19:54:04.466Z,5.60
2024-01-25T19:56:31.072Z,5.50
2024-01-25T19:58:58.328Z,5.52
2024-01-25T20:01:25.584Z,5.52
2024-01-25T20:03:52.618Z,5.51
2024-01-25T20:06:21.542Z,5.34
2024-01-25T20:08:49.433Z,5.49
2024-01-25T20:11:16.047Z,5.55
2024-01-25T20:13:42.687Z,5.56
2024-01-25T20:16:09.633Z,5.55
2024-01-25T20:18:36.961Z,5.49
2024-01-25T20:21:03.968Z,5.49
2024-01-25T20:23:30.802Z,5.53
2024-01-25T20:26:11.102Z,5.36
2024-01-25T20:28:37.633Z,5.38
2024-01-25T20:31:04.475Z,5.36
2024-01-25T20:33:31.297Z,5.31
2024-01-25T20:35:57.885Z,5.31
2024-01-25T20:38:25.281Z,5.27
2024-01-25T20:40:51.772Z,5.29
2024-01-25T20:43:18.335Z,5.31
2024-01-25T20:45:45.120Z,5.31
2024-01-25T20:48:13.224Z,5.23
2024-01-25T20:50:39.890Z,5.24
2024-01-25T20:53:09.544Z,5.30
2024-01-25T20:55:38.429Z,5.12
2024-01-25T20:58:05.107Z,5.20
2024-01-25T21:00:33.221Z,5.03
2024-01-25T21:03:00.155Z,5.02
2024-01-25T21:05:27.362Z,5.14
2024-01-25T21:07:54.324Z,5.16
2024-01-25T21:10:22.000Z,5.10
2024-01-25T21:12:48.996Z,5.10
2024-01-25T21:15:15.973Z,5.09
2024-01-25T21:17:42.595Z,5.18
2024-01-25T21:20:12.979Z,5.13
2024-01-25T21:22:39.550Z,4.94
2024-01-25T21:25:08.408Z,4.97
2024-01-25T21:27:37.236Z,4.91
2024-01-25T21:30:04.253Z,4.82
2024-01-25T21:32:31.137Z,4.81
2024-01-25T21:34:57.781Z,4.76
2024-01-25T21:37:25.539Z,4.71
2024-01-25T21:39:52.262Z,4.67
2024-01-25T21:42:19.456Z,4.59
2024-01-25T21:44:46.845Z,4.29
2024-01-25T21:47:13.646Z,4.56
2024-01-25T21:49:41.132Z,4.53
2024-01-25T21:52:08.166Z,4.45
2024-01-25T21:54:35.088Z,4.41
2024-01-25T21:57:02.055Z,4.23
2024-01-25T21:59:29.175Z,4.24
2024-01-25T22:01:56.137Z,4.20
2024-01-25T22:04:24.260Z,4.34
2024-01-25T22:06:51.492Z,4.34
2024-01-25T22:09:19.207Z,4.24
2024-01-25T22:11:45.911Z,4.22
2024-01-25T22:14:12.737Z,4.12
2024-01-25T22:16:39.314Z,4.18
2024-01-25T22:19:06.451Z,4.01
2024-01-25T22:21:36.264Z,4.18
2024-01-25T22:24:03.989Z,3.99
2024-01-25T22:26:30.594Z,4.12
2024-01-25T22:28:57.453Z,4.14
2024-01-25T22:31:23.988Z,4.10
2024-01-25T22:33:50.948Z,4.08
2024-01-25T22:36:17.972Z,4.05
2024-01-25T22:38:44.518Z,3.88
2024-01-25T22:41:13.144Z,4.01
2024-01-25T22:43:39.916Z,3.88
2024-01-25T22:46:06.462Z,3.99
2024-01-25T22:48:33.144Z,3.90
2024-01-25T22:51:04.042Z,3.82
2024-01-25T22:53:31.334Z,3.80
2024-01-25T22:55:58.250Z,3.74
2024-01-25T22:58:24.861Z,3.72
2024-01-25T23:00:51.844Z,3.54
2024-01-25T23:03:20.331Z,3.71
2024-01-25T23:05:47.054Z,3.63
2024-01-25T23:08:13.696Z,3.62
2024-01-25T23:10:41.022Z,3.57
2024-01-25T23:13:08.546Z,3.58
2024-01-25T23:15:35.904Z,3.52
2024-01-25T23:18:02.841Z,3.46
2024-01-25T23:20:30.384Z,3.46
2024-01-25T23:22:57.406Z,3.49
2024-01-25T23:25:23.973Z,3.49
2024-01-25T23:27:50.819Z,3.45
2024-01-25T23:30:17.606Z,3.50
2024-01-25T23:32:44.518Z,3.48
2024-01-25T23:35:11.201Z,3.30
2024-01-25T23:37:37.718Z,3.33
2024-01-25T23:40:07.976Z,3.15
2024-01-25T23:42:35.203Z,3.26
2024-01-25T23:45:02.097Z,3.23
2024-01-25T23:47:29.816Z,3.22
2024-01-25T23:49:56.916Z,3.14
2024-01-25T23:52:23.526Z,2.96
2024-01-25T23:54:50.767Z,3.11
2024-01-25T23:57:18.511Z,3.12
2024-01-25T23:59:45.401Z,3.09
